createdAt,value
2017-06-27T00:00:06.905Z,17.1
2017-06-27T00:01:18.260Z,17.02
2017-06-27T00:01:46.577Z,17.13
2017-06-27T00:02:14.748Z,17.04
2017-06-27T00:02:43.072Z,17.09
2017-06-27T00:03:11.349Z,17.06
2017-06-27T00:03:39.590Z,17.04
2017-06-27T00:04:07.886Z,17.04
2017-06-27T00:04:35.986Z,17.02
2017-06-27T00:05:04.184Z,17.1
2017-06-27T00:05:32.364Z,17.09
2017-06-27T00:06:00.636Z,17.16
2017-06-27T00:07:11.985Z,17.07
2017-06-27T00:07:40.303Z,16.94
2017-06-27T00:08:08.472Z,16.91
2017-06-27T00:08:36.607Z,16.99
2017-06-27T00:09:04.887Z,16.91
2017-06-27T00:09:33.132Z,16.91
2017-06-27T00:10:01.415Z,17.06
2017-06-27T00:10:29.421Z,16.91
2017-06-27T00:10:57.704Z,16.91
2017-06-27T00:11:25.969Z,17.06
2017-06-27T00:11:54.138Z,17.06
2017-06-27T00:13:05.483Z,16.97
2017-06-27T00:13:33.800Z,17.09
2017-06-27T00:14:01.972Z,17.01
2017-06-27T00:14:30.194Z,16.99
2017-06-27T00:14:58.386Z,17.02
2017-06-27T00:15:26.535Z,17.04
2017-06-27T00:15:54.745Z,16.99
2017-06-27T00:16:22.825Z,16.91
2017-06-27T00:16:51.116Z,17.04
2017-06-27T00:17:19.381Z,17.01
2017-06-27T00:17:47.549Z,16.95
2017-06-27T00:18:58.797Z,16.92
2017-06-27T00:19:26.835Z,16.9
2017-06-27T00:19:55.001Z,16.87
2017-06-27T00:20:23.146Z,16.97
2017-06-27T00:20:51.326Z,16.94
2017-06-27T00:21:19.665Z,16.9
2017-06-27T00:21:47.763Z,16.94
2017-06-27T00:22:15.946Z,16.94
2017-06-27T00:22:44.146Z,16.91
2017-06-27T00:23:12.230Z,16.88
2017-06-27T00:23:40.499Z,16.87
2017-06-27T00:24:51.758Z,16.9
2017-06-27T00:25:19.889Z,16.94
2017-06-27T00:25:48.061Z,16.92
2017-06-27T00:26:16.384Z,16.94
2017-06-27T00:26:44.663Z,16.91
2017-06-27T00:27:12.817Z,16.94
2017-06-27T00:27:41.011Z,16.91
2017-06-27T00:28:09.302Z,16.84
2017-06-27T00:28:37.502Z,16.95
2017-06-27T00:29:05.780Z,16.91
2017-06-27T00:29:33.955Z,16.87
2017-06-27T00:30:45.108Z,16.87
2017-06-27T00:31:13.242Z,16.84
2017-06-27T00:31:41.506Z,16.88
2017-06-27T00:32:09.644Z,16.9
2017-06-27T00:32:37.927Z,16.91
2017-06-27T00:33:06.172Z,16.88
2017-06-27T00:33:34.368Z,16.87
2017-06-27T00:34:02.463Z,16.91
2017-06-27T00:34:30.669Z,16.9
2017-06-27T00:34:58.846Z,16.92
2017-06-27T00:35:27.121Z,16.9
2017-06-27T00:36:38.474Z,16.83
2017-06-27T00:37:06.512Z,16.92
2017-06-27T00:37:34.776Z,16.9
2017-06-27T00:38:02.916Z,16.91
2017-06-27T00:38:31.197Z,16.97
2017-06-27T00:38:59.532Z,16.88
2017-06-27T00:39:27.821Z,16.97
2017-06-27T00:39:55.815Z,16.91
2017-06-27T00:40:24.114Z,16.94
2017-06-27T00:40:52.379Z,16.94
2017-06-27T00:41:20.547Z,16.91
2017-06-27T00:42:31.795Z,16.87
2017-06-27T00:42:59.926Z,16.87
2017-06-27T00:43:28.096Z,16.91
2017-06-27T00:43:56.328Z,16.91
2017-06-27T00:44:24.608Z,16.82
2017-06-27T00:44:52.856Z,16.87
2017-06-27T00:45:20.958Z,16.88
2017-06-27T00:45:49.233Z,16.77
2017-06-27T00:46:17.338Z,16.84
2017-06-27T00:46:45.516Z,16.74
2017-06-27T00:47:13.783Z,16.74
2017-06-27T00:48:25.037Z,16.84
2017-06-27T00:48:53.170Z,16.87
2017-06-27T00:49:21.242Z,16.77
2017-06-27T00:49:49.569Z,16.79
2017-06-27T00:50:17.757Z,16.77
2017-06-27T00:50:46.095Z,16.76
2017-06-27T00:51:14.293Z,16.73
2017-06-27T00:51:42.579Z,16.83
2017-06-27T00:52:10.872Z,16.77
2017-06-27T00:52:39.059Z,16.74
2017-06-27T00:53:07.325Z,16.74
2017-06-27T00:54:18.576Z,16.76
2017-06-27T00:54:46.894Z,16.72
2017-06-27T00:55:14.971Z,16.82
2017-06-27T00:55:43.301Z,16.74
2017-06-27T00:56:11.488Z,16.7
2017-06-27T00:56:39.833Z,16.69
2017-06-27T00:57:07.930Z,16.64
2017-06-27T00:57:36.216Z,16.69
2017-06-27T00:58:04.511Z,16.65
2017-06-27T00:58:32.778Z,16.72
2017-06-27T00:59:00.952Z,16.69
2017-06-27T01:00:12.202Z,16.64
2017-06-27T01:00:40.423Z,16.65
2017-06-27T01:01:08.696Z,16.64
2017-06-27T01:01:37.025Z,16.61
2017-06-27T01:02:05.303Z,16.59
2017-06-27T01:02:33.456Z,16.62
2017-06-27T01:03:01.653Z,16.58
2017-06-27T01:03:29.748Z,16.65
2017-06-27T01:03:57.958Z,16.59
2017-06-27T01:04:26.033Z,16.59
2017-06-27T01:04:54.305Z,16.64
2017-06-27T01:06:05.460Z,16.59
2017-06-27T01:06:33.496Z,16.61
2017-06-27T01:07:01.757Z,16.65
2017-06-27T01:07:29.993Z,16.57
2017-06-27T01:07:58.271Z,16.64
2017-06-27T01:08:26.418Z,16.65
2017-06-27T01:08:54.702Z,16.65
2017-06-27T01:09:22.890Z,16.67
2017-06-27T01:09:51.187Z,16.62
2017-06-27T01:10:19.371Z,16.67
2017-06-27T01:10:47.544Z,16.73
2017-06-27T01:11:58.896Z,16.72
2017-06-27T01:12:27.211Z,16.64
2017-06-27T01:12:55.291Z,16.65
2017-06-27T01:13:23.514Z,16.62
2017-06-27T01:13:51.703Z,16.65
2017-06-27T01:14:20.036Z,16.65
2017-06-27T01:14:48.327Z,16.7
2017-06-27T01:15:16.331Z,16.64
2017-06-27T01:15:44.535Z,16.61
2017-06-27T01:16:12.619Z,16.61
2017-06-27T01:16:40.793Z,16.65
2017-06-27T01:17:52.145Z,16.55
2017-06-27T01:18:20.371Z,16.57
2017-06-27T01:18:48.447Z,16.55
2017-06-27T01:19:16.677Z,16.55
2017-06-27T01:19:44.961Z,16.57
2017-06-27T01:20:13.107Z,16.55
2017-06-27T01:20:41.299Z,16.57
2017-06-27T01:21:09.391Z,16.55
2017-06-27T01:21:37.593Z,16.58
2017-06-27T01:22:05.768Z,16.55
2017-06-27T01:22:33.946Z,16.58
2017-06-27T01:23:45.297Z,16.59
2017-06-27T01:24:13.541Z,16.49
2017-06-27T01:24:41.781Z,16.58
2017-06-27T01:25:10.108Z,16.55
2017-06-27T01:25:38.394Z,16.55
2017-06-27T01:26:06.535Z,16.52
2017-06-27T01:26:34.824Z,16.57
2017-06-27T01:27:03.104Z,16.58
2017-06-27T01:27:31.212Z,16.62
2017-06-27T01:27:59.389Z,16.65
2017-06-27T01:28:27.658Z,16.62
2017-06-27T01:29:38.910Z,16.7
2017-06-27T01:30:07.034Z,16.72
2017-06-27T01:30:35.198Z,16.69
2017-06-27T01:31:03.427Z,16.65
2017-06-27T01:31:31.613Z,16.7
2017-06-27T01:31:59.949Z,16.7
2017-06-27T01:32:28.240Z,16.72
2017-06-27T01:32:56.523Z,16.76
2017-06-27T01:33:24.726Z,16.76
2017-06-27T01:33:52.907Z,16.76
2017-06-27T01:34:21.176Z,16.79
2017-06-27T01:35:32.526Z,16.74
2017-06-27T01:36:00.753Z,16.76
2017-06-27T01:36:29.020Z,16.79
2017-06-27T01:36:57.344Z,16.7
2017-06-27T01:37:25.626Z,16.79
2017-06-27T01:37:53.956Z,16.73
2017-06-27T01:38:22.252Z,16.76
2017-06-27T01:38:50.533Z,16.74
2017-06-27T01:39:18.827Z,16.79
2017-06-27T01:39:47.004Z,16.79
2017-06-27T01:40:15.183Z,16.77
2017-06-27T01:41:26.435Z,16.72
2017-06-27T01:41:54.755Z,16.7
2017-06-27T01:42:22.926Z,16.73
2017-06-27T01:42:51.159Z,16.76
2017-06-27T01:43:19.439Z,16.73
2017-06-27T01:43:47.771Z,16.67
2017-06-27T01:44:16.061Z,16.7
2017-06-27T01:44:44.343Z,16.67
2017-06-27T01:45:12.538Z,16.64
2017-06-27T01:45:40.807Z,16.69
2017-06-27T01:46:08.978Z,16.69
2017-06-27T01:47:20.240Z,16.64
2017-06-27T01:47:48.465Z,16.64
2017-06-27T01:48:16.635Z,16.64
2017-06-27T01:48:44.862Z,16.72
2017-06-27T01:49:13.047Z,16.7
2017-06-27T01:49:41.286Z,16.64
2017-06-27T01:50:09.575Z,16.67
2017-06-27T01:50:37.761Z,16.67
2017-06-27T01:51:05.959Z,16.65
2017-06-27T01:51:34.133Z,16.61
2017-06-27T01:52:02.313Z,16.7
2017-06-27T01:53:13.666Z,16.64
2017-06-27T01:53:41.888Z,16.65
2017-06-27T01:54:10.158Z,16.62
2017-06-27T01:54:38.386Z,16.62
2017-06-27T01:55:06.569Z,16.64
2017-06-27T01:55:34.907Z,16.64
2017-06-27T01:56:03.008Z,16.61
2017-06-27T01:56:31.218Z,16.64
2017-06-27T01:56:59.501Z,16.65
2017-06-27T01:57:27.778Z,16.59
2017-06-27T01:57:56.044Z,16.57
2017-06-27T01:59:07.392Z,16.64
2017-06-27T01:59:35.616Z,16.58
2017-06-27T02:00:03.790Z,16.59
2017-06-27T02:00:32.018Z,16.54
2017-06-27T02:01:00.301Z,16.58
2017-06-27T02:01:28.543Z,16.55
2017-06-27T02:01:56.833Z,16.51
2017-06-27T02:02:25.119Z,16.57
2017-06-27T02:02:53.411Z,16.54
2017-06-27T02:03:21.592Z,16.57
2017-06-27T02:03:49.858Z,16.61
2017-06-27T02:05:01.208Z,16.59
2017-06-27T02:05:29.523Z,16.54
2017-06-27T02:05:57.692Z,16.58
2017-06-27T02:06:25.920Z,16.61
2017-06-27T02:06:54.110Z,16.58
2017-06-27T02:07:22.362Z,16.49
2017-06-27T02:07:50.651Z,16.58
2017-06-27T02:08:18.934Z,16.57
2017-06-27T02:08:47.231Z,16.46
2017-06-27T02:09:15.505Z,16.46
2017-06-27T02:09:43.683Z,16.44
2017-06-27T02:10:55.031Z,16.52
2017-06-27T02:11:23.348Z,16.62
2017-06-27T02:11:51.609Z,16.55
2017-06-27T02:12:19.939Z,16.49
2017-06-27T02:12:48.030Z,16.47
2017-06-27T02:13:16.270Z,16.47
2017-06-27T02:13:44.558Z,16.55
2017-06-27T02:14:12.656Z,16.51
2017-06-27T02:14:40.858Z,16.44
2017-06-27T02:15:09.031Z,16.47
2017-06-27T02:15:37.299Z,16.47
2017-06-27T02:16:48.464Z,16.49
2017-06-27T02:17:16.687Z,16.42
2017-06-27T02:17:44.858Z,16.46
2017-06-27T02:18:13.187Z,16.46
2017-06-27T02:18:41.378Z,16.47
2017-06-27T02:19:09.624Z,16.46
2017-06-27T02:19:37.732Z,16.44
2017-06-27T02:20:05.922Z,16.46
2017-06-27T02:20:34.217Z,16.47
2017-06-27T02:21:02.490Z,16.43
2017-06-27T02:21:30.756Z,16.46
2017-06-27T02:22:42.109Z,16.37
2017-06-27T02:23:10.336Z,16.47
2017-06-27T02:23:38.603Z,16.4
2017-06-27T02:24:06.839Z,16.44
2017-06-27T02:24:35.021Z,16.47
2017-06-27T02:25:03.361Z,16.44
2017-06-27T02:25:31.652Z,16.46
2017-06-27T02:25:59.937Z,16.44
2017-06-27T02:26:28.235Z,16.42
2017-06-27T02:26:56.320Z,16.46
2017-06-27T02:27:24.589Z,16.43
2017-06-27T02:28:35.939Z,16.49
2017-06-27T02:29:04.256Z,16.44
2017-06-27T02:29:32.523Z,16.43
2017-06-27T02:30:00.760Z,16.47
2017-06-27T02:30:29.038Z,16.44
2017-06-27T02:30:57.368Z,16.44
2017-06-27T02:31:25.562Z,16.43
2017-06-27T02:31:53.751Z,16.43
2017-06-27T02:32:21.955Z,16.43
2017-06-27T02:32:50.131Z,16.44
2017-06-27T02:33:18.394Z,16.39
2017-06-27T02:34:29.649Z,16.46
2017-06-27T02:34:57.966Z,16.46
2017-06-27T02:35:25.948Z,16.44
2017-06-27T02:35:54.271Z,16.43
2017-06-27T02:36:22.552Z,16.4
2017-06-27T02:36:50.704Z,16.42
2017-06-27T02:37:18.997Z,16.44
2017-06-27T02:37:47.274Z,16.44
2017-06-27T02:38:15.386Z,16.42
2017-06-27T02:38:43.662Z,16.44
2017-06-27T02:39:11.926Z,16.43
2017-06-27T02:40:23.281Z,16.44
2017-06-27T02:40:51.222Z,16.44
2017-06-27T02:41:19.483Z,16.49
2017-06-27T02:41:47.720Z,16.46
2017-06-27T02:42:15.815Z,16.42
2017-06-27T02:42:43.966Z,16.46
2017-06-27T02:43:12.165Z,16.47
2017-06-27T02:43:40.259Z,16.46
2017-06-27T02:44:08.558Z,16.44
2017-06-27T02:44:36.831Z,16.49
2017-06-27T02:45:05.007Z,16.42
2017-06-27T02:46:16.258Z,16.47
2017-06-27T02:46:44.389Z,16.47
2017-06-27T02:47:12.655Z,16.47
2017-06-27T02:47:40.798Z,16.44
2017-06-27T02:48:09.079Z,16.49
2017-06-27T02:48:37.321Z,16.44
2017-06-27T02:49:05.612Z,16.44
2017-06-27T02:49:33.896Z,16.44
2017-06-27T02:50:02.190Z,16.46
2017-06-27T02:50:30.461Z,16.39
2017-06-27T02:50:58.732Z,16.51
2017-06-27T02:52:10.083Z,16.46
2017-06-27T02:52:38.309Z,16.47
2017-06-27T02:53:06.576Z,16.43
2017-06-27T02:53:34.904Z,16.42
2017-06-27T02:54:03.091Z,16.42
2017-06-27T02:54:31.423Z,16.47
2017-06-27T02:54:59.621Z,16.43
2017-06-27T02:55:27.719Z,16.55
2017-06-27T02:55:55.826Z,16.46
2017-06-27T02:56:24.004Z,16.47
2017-06-27T02:56:52.181Z,16.47
2017-06-27T02:58:03.528Z,16.51
2017-06-27T02:58:31.755Z,16.46
2017-06-27T02:59:00.022Z,16.42
2017-06-27T02:59:28.349Z,16.46
2017-06-27T02:59:56.630Z,16.55
2017-06-27T03:00:24.960Z,16.55
2017-06-27T03:00:53.251Z,16.51
2017-06-27T03:01:21.532Z,16.43
2017-06-27T03:01:49.836Z,16.43
2017-06-27T03:02:18.110Z,16.43
2017-06-27T03:02:46.374Z,16.49
2017-06-27T03:03:57.720Z,16.51
2017-06-27T03:04:26.033Z,16.39
2017-06-27T03:04:54.301Z,16.44
2017-06-27T03:05:22.448Z,16.44
2017-06-27T03:05:50.540Z,16.49
2017-06-27T03:06:18.784Z,16.47
2017-06-27T03:06:47.073Z,16.51
2017-06-27T03:07:15.356Z,16.57
2017-06-27T03:07:43.562Z,16.55
2017-06-27T03:08:11.836Z,16.58
2017-06-27T03:08:39.914Z,16.61
2017-06-27T03:09:51.270Z,16.47
2017-06-27T03:10:19.593Z,16.62
2017-06-27T03:10:47.578Z,16.52
2017-06-27T03:11:15.811Z,16.54
2017-06-27T03:11:44.116Z,16.46
2017-06-27T03:12:12.431Z,16.47
2017-06-27T03:12:40.623Z,16.47
2017-06-27T03:13:08.812Z,16.52
2017-06-27T03:13:37.112Z,16.47
2017-06-27T03:14:05.386Z,16.42
2017-06-27T03:14:33.644Z,16.51
2017-06-27T03:15:44.803Z,16.44
2017-06-27T03:16:13.122Z,16.44
2017-06-27T03:16:41.386Z,16.47
2017-06-27T03:17:09.617Z,16.47
2017-06-27T03:17:37.895Z,16.44
2017-06-27T03:18:06.041Z,16.44
2017-06-27T03:18:34.146Z,16.47
2017-06-27T03:19:02.424Z,16.42
2017-06-27T03:19:30.723Z,16.4
2017-06-27T03:19:58.997Z,16.42
2017-06-27T03:20:27.173Z,16.47
2017-06-27T03:21:38.526Z,16.52
2017-06-27T03:22:06.659Z,16.47
2017-06-27T03:22:34.923Z,16.44
2017-06-27T03:23:03.063Z,16.44
2017-06-27T03:23:31.346Z,16.44
2017-06-27T03:23:59.688Z,16.46
2017-06-27T03:24:27.888Z,16.43
2017-06-27T03:24:56.075Z,16.43
2017-06-27T03:25:24.278Z,16.43
2017-06-27T03:25:52.552Z,16.4
2017-06-27T03:26:20.816Z,16.44
2017-06-27T03:27:32.169Z,16.4
2017-06-27T03:28:00.403Z,16.44
2017-06-27T03:28:28.669Z,16.44
2017-06-27T03:28:57.000Z,16.46
2017-06-27T03:29:25.185Z,16.39
2017-06-27T03:29:53.512Z,16.46
2017-06-27T03:30:21.610Z,16.43
2017-06-27T03:30:49.892Z,16.39
2017-06-27T03:31:18.191Z,16.44
2017-06-27T03:31:46.459Z,16.43
2017-06-27T03:32:14.728Z,16.44
2017-06-27T03:33:26.078Z,16.42
2017-06-27T03:33:54.302Z,16.47
2017-06-27T03:34:22.567Z,16.43
2017-06-27T03:34:50.803Z,16.42
2017-06-27T03:35:18.994Z,16.44
2017-06-27T03:35:47.145Z,16.46
2017-06-27T03:36:15.340Z,16.47
2017-06-27T03:36:43.335Z,16.49
2017-06-27T03:37:11.448Z,16.47
2017-06-27T03:37:39.724Z,16.46
2017-06-27T03:38:07.987Z,16.47
2017-06-27T03:39:19.341Z,16.47
2017-06-27T03:39:47.656Z,16.44
2017-06-27T03:40:15.919Z,16.44
2017-06-27T03:40:44.153Z,16.42
2017-06-27T03:41:12.247Z,16.46
2017-06-27T03:41:40.390Z,16.47
2017-06-27T03:42:08.677Z,16.42
2017-06-27T03:42:36.864Z,16.44
2017-06-27T03:43:05.072Z,16.4
2017-06-27T03:43:33.343Z,16.46
2017-06-27T03:44:01.612Z,16.47
2017-06-27T03:45:12.775Z,16.43
2017-06-27T03:45:40.906Z,16.43
2017-06-27T03:46:09.074Z,16.46
2017-06-27T03:46:37.403Z,16.44
2017-06-27T03:47:05.493Z,16.42
2017-06-27T03:47:33.730Z,16.43
2017-06-27T03:48:02.021Z,16.43
2017-06-27T03:48:30.306Z,16.47
2017-06-27T03:48:58.603Z,16.33
2017-06-27T03:49:26.690Z,16.36
2017-06-27T03:49:54.962Z,16.34
2017-06-27T03:51:06.220Z,16.44
2017-06-27T03:51:34.558Z,16.37
2017-06-27T03:52:02.707Z,16.28
2017-06-27T03:52:31.023Z,16.29
2017-06-27T03:52:59.304Z,16.29
2017-06-27T03:53:27.553Z,16.37
2017-06-27T03:53:55.839Z,16.37
2017-06-27T03:54:24.025Z,16.37
2017-06-27T03:54:52.225Z,16.34
2017-06-27T03:55:20.498Z,16.34
2017-06-27T03:55:48.761Z,16.32
2017-06-27T03:56:59.915Z,16.36
2017-06-27T03:57:28.139Z,16.33
2017-06-27T03:57:56.313Z,16.32
2017-06-27T03:58:24.637Z,16.4
2017-06-27T03:58:52.918Z,16.33
2017-06-27T03:59:21.160Z,16.33
2017-06-27T03:59:49.455Z,16.33
2017-06-27T04:00:17.737Z,16.33
2017-06-27T04:00:46.031Z,16.29
2017-06-27T04:01:14.211Z,16.36
2017-06-27T04:01:42.478Z,16.29
2017-06-27T04:02:53.734Z,16.39
2017-06-27T04:03:21.958Z,16.33
2017-06-27T04:03:50.226Z,16.39
2017-06-27T04:04:18.549Z,16.37
2017-06-27T04:04:46.731Z,16.29
2017-06-27T04:05:14.783Z,16.33
2017-06-27T04:05:43.071Z,16.4
2017-06-27T04:06:11.170Z,16.29
2017-06-27T04:06:39.367Z,16.28
2017-06-27T04:07:07.639Z,16.32
2017-06-27T04:07:35.811Z,16.28
2017-06-27T04:08:47.060Z,16.26
2017-06-27T04:09:15.284Z,16.25
2017-06-27T04:09:43.451Z,16.28
2017-06-27T04:10:11.681Z,16.26
2017-06-27T04:10:39.960Z,16.26
2017-06-27T04:11:08.297Z,16.26
2017-06-27T04:11:36.497Z,16.26
2017-06-27T04:12:04.771Z,16.26
2017-06-27T04:12:32.981Z,16.32
2017-06-27T04:13:01.254Z,16.22
2017-06-27T04:13:29.520Z,16.29
2017-06-27T04:14:40.774Z,16.25
2017-06-27T04:15:09.087Z,16.25
2017-06-27T04:15:37.262Z,16.24
2017-06-27T04:16:05.400Z,16.25
2017-06-27T04:16:33.585Z,16.26
2017-06-27T04:17:01.829Z,16.21
2017-06-27T04:17:30.119Z,16.22
2017-06-27T04:17:58.402Z,16.18
2017-06-27T04:18:26.697Z,16.16
2017-06-27T04:18:54.965Z,16.17
2017-06-27T04:19:23.134Z,16.21
2017-06-27T04:20:34.393Z,16.21
2017-06-27T04:21:02.524Z,16.28
2017-06-27T04:21:30.787Z,16.18
2017-06-27T04:21:58.923Z,16.16
2017-06-27T04:22:27.104Z,16.24
2017-06-27T04:22:55.342Z,16.17
2017-06-27T04:23:23.539Z,16.18
2017-06-27T04:23:51.825Z,16.18
2017-06-27T04:24:19.931Z,16.26
2017-06-27T04:24:48.011Z,16.32
2017-06-27T04:25:16.181Z,16.21
2017-06-27T04:26:27.246Z,16.17
2017-06-27T04:26:55.465Z,16.21
2017-06-27T04:27:23.727Z,16.17
2017-06-27T04:27:51.951Z,16.16
2017-06-27T04:28:20.137Z,16.17
2017-06-27T04:28:48.472Z,16.18
2017-06-27T04:29:16.763Z,16.21
2017-06-27T04:29:45.047Z,16.1
2017-06-27T04:30:13.263Z,16.16
2017-06-27T04:30:41.434Z,16.16
2017-06-27T04:31:09.600Z,16.16
2017-06-27T04:32:20.860Z,16.16
2017-06-27T04:32:49.079Z,16.24
2017-06-27T04:33:17.343Z,16.16
2017-06-27T04:33:45.474Z,16.17
2017-06-27T04:34:13.558Z,16.21
2017-06-27T04:34:41.896Z,16.18
2017-06-27T04:35:10.089Z,16.18
2017-06-27T04:35:38.371Z,16.17
2017-06-27T04:36:06.666Z,16.16
2017-06-27T04:36:34.842Z,16.17
2017-06-27T04:37:03.105Z,16.17
2017-06-27T04:38:14.263Z,16.16
2017-06-27T04:38:42.579Z,16.13
2017-06-27T04:39:10.660Z,16.17
2017-06-27T04:39:38.985Z,16.22
2017-06-27T04:40:07.264Z,16.13
2017-06-27T04:40:35.601Z,16.14
2017-06-27T04:41:03.792Z,16.14
2017-06-27T04:41:31.891Z,16.17
2017-06-27T04:41:59.907Z,16.06
2017-06-27T04:42:28.085Z,16.26
2017-06-27T04:42:56.349Z,16.17
2017-06-27T04:44:07.697Z,16.08
2017-06-27T04:44:35.918Z,16.06
2017-06-27T04:45:04.085Z,16.1
2017-06-27T04:45:32.411Z,16.14
2017-06-27T04:46:00.692Z,16.16
2017-06-27T04:46:29.031Z,16.25
2017-06-27T04:46:57.227Z,16.09
2017-06-27T04:47:25.323Z,16.05
2017-06-27T04:47:53.529Z,16.18
2017-06-27T04:48:21.703Z,16.17
2017-06-27T04:48:49.969Z,16.21
2017-06-27T04:50:01.129Z,16.21
2017-06-27T04:50:29.447Z,16.16
2017-06-27T04:50:57.706Z,16.22
2017-06-27T04:51:25.937Z,16.13
2017-06-27T04:51:54.215Z,16.16
2017-06-27T04:52:22.457Z,16.17
2017-06-27T04:52:50.650Z,16.16
2017-06-27T04:53:18.937Z,16.13
2017-06-27T04:53:47.138Z,16.14
2017-06-27T04:54:15.407Z,16.08
2017-06-27T04:54:43.575Z,16.09
2017-06-27T04:55:54.833Z,16.08
2017-06-27T04:56:23.057Z,16.16
2017-06-27T04:56:51.224Z,16.13
2017-06-27T04:57:19.360Z,16.1
2017-06-27T04:57:47.453Z,16.14
2017-06-27T04:58:15.786Z,16.14
2017-06-27T04:58:43.986Z,16.03
2017-06-27T04:59:12.269Z,16.17
2017-06-27T04:59:40.569Z,16.1
2017-06-27T05:00:08.837Z,16.13
2017-06-27T05:00:37.097Z,16.13
2017-06-27T05:01:48.451Z,16.13
2017-06-27T05:02:16.673Z,16.16
2017-06-27T05:02:44.935Z,16.17
2017-06-27T05:03:13.066Z,16.08
2017-06-27T05:03:41.341Z,16.08
2017-06-27T05:04:09.486Z,16.13
2017-06-27T05:04:37.776Z,16.13
2017-06-27T05:05:06.060Z,16.06
2017-06-27T05:05:34.173Z,16.05
2017-06-27T05:06:02.352Z,16.09
2017-06-27T05:06:30.524Z,16.05
2017-06-27T05:07:41.681Z,16.08
2017-06-27T05:08:09.910Z,16.09
2017-06-27T05:08:38.076Z,16.05
2017-06-27T05:09:06.214Z,16.03
2017-06-27T05:09:34.397Z,15.99
2017-06-27T05:10:02.445Z,16.02
2017-06-27T05:10:30.647Z,15.96
2017-06-27T05:10:58.839Z,16
2017-06-27T05:11:26.850Z,16.05
2017-06-27T05:11:55.123Z,16.06
2017-06-27T05:12:23.297Z,16.08
2017-06-27T05:13:34.551Z,15.93
2017-06-27T05:14:02.771Z,15.99
2017-06-27T05:14:31.035Z,15.98
2017-06-27T05:14:59.364Z,15.95
2017-06-27T05:15:27.453Z,16
2017-06-27T05:15:55.702Z,15.96
2017-06-27T05:16:23.988Z,15.98
2017-06-27T05:16:52.267Z,15.99
2017-06-27T05:17:20.286Z,15.95
2017-06-27T05:17:48.553Z,15.91
2017-06-27T05:18:16.817Z,15.93
2017-06-27T05:19:28.070Z,15.99
2017-06-27T05:19:56.295Z,15.98
2017-06-27T05:20:24.555Z,16.02
2017-06-27T05:20:52.785Z,15.93
2017-06-27T05:21:20.967Z,15.99
2017-06-27T05:21:49.307Z,16.03
2017-06-27T05:22:17.505Z,15.99
2017-06-27T05:22:45.787Z,15.96
2017-06-27T05:23:14.080Z,16
2017-06-27T05:23:42.256Z,15.88
2017-06-27T05:24:10.426Z,15.95
2017-06-27T05:25:21.780Z,15.98
2017-06-27T05:25:50.091Z,15.98
2017-06-27T05:26:18.256Z,15.9
2017-06-27T05:26:46.481Z,15.91
2017-06-27T05:27:14.568Z,15.93
2017-06-27T05:27:42.899Z,15.93
2017-06-27T05:28:11.189Z,15.99
2017-06-27T05:28:39.374Z,15.91
2017-06-27T05:29:07.585Z,15.87
2017-06-27T05:29:35.853Z,15.9
2017-06-27T05:30:04.020Z,15.99
2017-06-27T05:31:15.374Z,15.87
2017-06-27T05:31:43.598Z,15.99
2017-06-27T05:32:11.770Z,15.91
2017-06-27T05:32:39.911Z,15.95
2017-06-27T05:33:08.190Z,15.91
2017-06-27T05:33:36.433Z,15.84
2017-06-27T05:34:04.721Z,15.91
2017-06-27T05:34:33.005Z,15.9
2017-06-27T05:35:01.300Z,15.93
2017-06-27T05:35:29.474Z,15.88
2017-06-27T05:35:57.734Z,15.93
2017-06-27T05:37:08.892Z,15.85
2017-06-27T05:37:37.209Z,15.85
2017-06-27T05:38:05.468Z,15.87
2017-06-27T05:38:33.605Z,15.85
2017-06-27T05:39:01.504Z,15.88
2017-06-27T05:39:29.746Z,15.85
2017-06-27T05:39:57.944Z,15.93
2017-06-27T05:40:26.223Z,15.8
2017-06-27T05:40:54.336Z,15.91
2017-06-27T05:41:22.608Z,15.88
2017-06-27T05:41:50.776Z,15.87
2017-06-27T05:43:02.127Z,15.85
2017-06-27T05:43:30.443Z,15.84
2017-06-27T05:43:58.609Z,15.84
2017-06-27T05:44:26.935Z,15.84
2017-06-27T05:44:55.211Z,15.83
2017-06-27T05:45:23.455Z,15.87
2017-06-27T05:45:51.744Z,15.83
2017-06-27T05:46:19.934Z,15.83
2017-06-27T05:46:48.134Z,15.84
2017-06-27T05:47:16.214Z,15.85
2017-06-27T05:47:44.382Z,15.87
2017-06-27T05:48:55.738Z,15.88
2017-06-27T05:49:24.057Z,15.85
2017-06-27T05:49:52.316Z,15.84
2017-06-27T05:50:20.355Z,15.84
2017-06-27T05:50:48.631Z,15.78
2017-06-27T05:51:16.876Z,15.8
2017-06-27T05:51:45.161Z,15.83
2017-06-27T05:52:13.446Z,15.81
2017-06-27T05:52:41.647Z,15.72
2017-06-27T05:53:09.725Z,15.78
2017-06-27T05:53:37.991Z,15.81
2017-06-27T05:54:49.250Z,15.83
2017-06-27T05:55:17.379Z,15.78
2017-06-27T05:55:45.544Z,15.83
2017-06-27T05:56:13.775Z,15.77
2017-06-27T05:56:41.776Z,15.8
2017-06-27T05:57:10.118Z,15.77
2017-06-27T05:57:38.314Z,15.8
2017-06-27T05:58:06.596Z,15.77
2017-06-27T05:58:34.895Z,15.81
2017-06-27T05:59:03.162Z,15.78
2017-06-27T05:59:31.240Z,15.8
2017-06-27T06:00:42.496Z,15.76
2017-06-27T06:01:10.720Z,15.77
2017-06-27T06:01:38.987Z,15.7
2017-06-27T06:02:07.217Z,15.81
2017-06-27T06:02:35.401Z,15.76
2017-06-27T06:03:03.645Z,15.77
2017-06-27T06:03:31.751Z,15.7
2017-06-27T06:04:00.034Z,15.76
2017-06-27T06:04:28.331Z,15.69
2017-06-27T06:04:56.601Z,15.76
2017-06-27T06:05:24.767Z,15.76
2017-06-27T06:06:36.120Z,15.76
2017-06-27T06:07:04.343Z,15.73
2017-06-27T06:07:32.608Z,15.81
2017-06-27T06:08:00.742Z,15.8
2017-06-27T06:08:28.927Z,15.77
2017-06-27T06:08:56.981Z,15.78
2017-06-27T06:09:25.181Z,15.78
2017-06-27T06:09:53.278Z,15.76
2017-06-27T06:10:21.571Z,15.77
2017-06-27T06:10:49.748Z,15.72
2017-06-27T06:11:17.915Z,15.72
2017-06-27T06:12:29.266Z,15.72
2017-06-27T06:12:57.587Z,15.72
2017-06-27T06:13:25.850Z,15.68
2017-06-27T06:13:54.177Z,15.69
2017-06-27T06:14:22.454Z,15.68
2017-06-27T06:14:50.788Z,15.7
2017-06-27T06:15:18.890Z,15.68
2017-06-27T06:15:47.167Z,15.72
2017-06-27T06:16:15.277Z,15.65
2017-06-27T06:16:43.547Z,15.7
2017-06-27T06:17:11.818Z,15.65
2017-06-27T06:18:23.164Z,15.69
2017-06-27T06:18:51.293Z,15.66
2017-06-27T06:19:19.464Z,15.68
2017-06-27T06:19:47.789Z,15.63
2017-06-27T06:20:16.067Z,15.59
2017-06-27T06:20:44.404Z,15.59
2017-06-27T06:21:12.699Z,15.52
2017-06-27T06:21:40.983Z,15.68
2017-06-27T06:22:09.086Z,15.6
2017-06-27T06:22:37.257Z,15.68
2017-06-27T06:23:05.426Z,15.6
2017-06-27T06:24:16.681Z,15.58
2017-06-27T06:24:44.817Z,15.52
2017-06-27T06:25:12.989Z,15.56
2017-06-27T06:25:41.124Z,15.59
2017-06-27T06:26:09.304Z,15.59
2017-06-27T06:26:37.634Z,15.56
2017-06-27T06:27:05.829Z,15.56
2017-06-27T06:27:33.926Z,15.6
2017-06-27T06:28:02.224Z,15.5
2017-06-27T06:28:30.402Z,15.52
2017-06-27T06:28:58.659Z,15.56
2017-06-27T06:30:09.824Z,15.59
2017-06-27T06:30:37.952Z,15.56
2017-06-27T06:31:06.216Z,15.54
2017-06-27T06:31:34.258Z,15.5
2017-06-27T06:32:02.535Z,15.52
2017-06-27T06:32:30.675Z,15.56
2017-06-27T06:32:58.777Z,15.51
2017-06-27T06:33:27.063Z,15.5
2017-06-27T06:33:55.359Z,15.56
2017-06-27T06:34:23.531Z,15.5
2017-06-27T06:34:51.700Z,15.48
2017-06-27T06:36:02.955Z,15.5
2017-06-27T06:36:31.081Z,15.44
2017-06-27T06:36:59.248Z,15.47
2017-06-27T06:37:27.480Z,15.45
2017-06-27T06:37:55.664Z,15.48
2017-06-27T06:38:23.903Z,15.44
2017-06-27T06:38:52.195Z,15.48
2017-06-27T06:39:20.384Z,15.44
2017-06-27T06:39:48.681Z,15.5
2017-06-27T06:40:16.953Z,15.45
2017-06-27T06:40:45.214Z,15.4
2017-06-27T06:41:56.277Z,15.45
2017-06-27T06:42:24.505Z,15.36
2017-06-27T06:42:52.768Z,15.36
2017-06-27T06:43:21.088Z,15.33
2017-06-27T06:43:49.272Z,15.36
2017-06-27T06:44:17.519Z,15.38
2017-06-27T06:44:45.802Z,15.38
2017-06-27T06:45:13.993Z,15.38
2017-06-27T06:45:42.290Z,15.3
2017-06-27T06:46:10.466Z,15.27
2017-06-27T06:46:38.631Z,15.27
2017-06-27T06:47:49.983Z,15.35
2017-06-27T06:48:18.300Z,15.32
2017-06-27T06:48:46.560Z,15.35
2017-06-27T06:49:14.789Z,15.26
2017-06-27T06:49:42.972Z,15.26
2017-06-27T06:50:11.215Z,15.23
2017-06-27T06:50:39.414Z,15.29
2017-06-27T06:51:07.694Z,15.23
2017-06-27T06:51:35.713Z,15.25
2017-06-27T06:52:03.887Z,15.26
2017-06-27T06:52:32.055Z,15.19
2017-06-27T06:53:43.314Z,15.22
2017-06-27T06:54:11.539Z,15.22
2017-06-27T06:54:39.707Z,15.12
2017-06-27T06:55:07.934Z,15.14